createdAt,value
2023-03-27T00:01:01.572Z,9.30
2023-03-27T00:02:04.030Z,9.28
2023-03-27T00:03:06.282Z,9.24
2023-03-27T00:04:09.356Z,9.24
2023-03-27T00:05:11.519Z,9.19
2023-03-27T00:06:17.510Z,9.17
2023-03-27T00:07:20.076Z,9.16
2023-03-27T00:08:22.220Z,9.14
2023-03-27T00:09:25.920Z,9.16
2023-03-27T00:10:29.417Z,9.22
2023-03-27T00:11:31.946Z,9.23
2023-03-27T00:12:34.105Z,9.23
2023-03-27T00:13:49.059Z,9.25
2023-03-27T00:14:52.819Z,9.29
2023-03-27T00:15:57.059Z,9.27
2023-03-27T00:17:00.362Z,9.32
2023-03-27T00:18:04.226Z,9.26
2023-03-27T00:19:06.461Z,9.27
2023-03-27T00:20:09.005Z,9.23
2023-03-27T00:21:11.173Z,9.21
2023-03-27T00:22:13.294Z,9.20
2023-03-27T00:23:16.394Z,9.21
2023-03-27T00:24:18.572Z,9.17
2023-03-27T00:25:22.755Z,9.16
2023-03-27T00:26:24.932Z,9.14
2023-03-27T00:27:27.119Z,9.08
2023-03-27T00:28:30.312Z,9.02
2023-03-27T00:29:33.380Z,9.01
2023-03-27T00:30:36.049Z,9.01
2023-03-27T00:31:38.185Z,8.98
2023-03-27T00:32:40.777Z,8.96
2023-03-27T00:33:43.042Z,8.95
2023-03-27T00:34:45.224Z,8.95
2023-03-27T00:35:48.438Z,8.94
2023-03-27T00:36:52.024Z,8.98
2023-03-27T00:37:54.529Z,8.99
2023-03-27T00:38:56.744Z,9.00
2023-03-27T00:39:59.586Z,8.96
2023-03-27T00:41:02.298Z,8.95
2023-03-27T00:42:04.500Z,8.97
2023-03-27T00:43:30.141Z,8.99
2023-03-27T00:44:36.431Z,9.02
2023-03-27T00:45:39.488Z,9.04
2023-03-27T00:46:44.065Z,9.04
2023-03-27T00:47:48.513Z,9.04
2023-03-27T00:48:52.012Z,9.07
2023-03-27T00:49:54.236Z,9.05
2023-03-27T00:50:57.472Z,9.04
2023-03-27T00:52:02.013Z,9.00
2023-03-27T00:53:07.316Z,8.99
2023-03-27T00:54:09.959Z,8.98
2023-03-27T00:55:15.398Z,8.95
2023-03-27T00:56:18.043Z,8.92
2023-03-27T00:57:22.037Z,8.86
2023-03-27T00:58:34.010Z,8.83
2023-03-27T00:59:39.732Z,8.83
2023-03-27T01:00:41.884Z,8.87
2023-03-27T01:01:44.865Z,8.91
2023-03-27T01:02:48.875Z,8.90
2023-03-27T01:03:52.888Z,8.92
2023-03-27T01:04:55.589Z,8.89
2023-03-27T01:06:00.594Z,8.85
2023-03-27T01:07:04.721Z,8.86
2023-03-27T01:08:07.524Z,8.86
2023-03-27T01:09:09.623Z,8.82
2023-03-27T01:10:12.161Z,8.83
2023-03-27T01:11:35.533Z,8.81
2023-03-27T01:12:54.271Z,8.84
2023-03-27T01:14:13.565Z,8.84
2023-03-27T01:15:24.813Z,8.81
2023-03-27T01:16:44.887Z,8.83
2023-03-27T01:17:56.758Z,8.87
2023-03-27T01:19:01.521Z,8.92
2023-03-27T01:20:25.083Z,8.93
2023-03-27T01:21:47.822Z,8.93
2023-03-27T01:23:14.423Z,8.89
2023-03-27T01:24:22.649Z,8.81
2023-03-27T01:25:33.471Z,8.81
2023-03-27T01:26:58.423Z,8.77
2023-03-27T01:28:21.676Z,8.73
2023-03-27T01:29:35.970Z,8.74
2023-03-27T01:30:51.547Z,8.74
2023-03-27T01:32:36.123Z,8.76
2023-03-27T01:34:06.112Z,8.81
2023-03-27T01:35:20.761Z,8.81
2023-03-27T01:36:34.830Z,8.81
2023-03-27T01:37:50.364Z,8.79
2023-03-27T01:39:13.718Z,8.79
2023-03-27T01:40:19.804Z,8.83
2023-03-27T01:41:30.516Z,8.86
2023-03-27T01:42:39.238Z,8.81
2023-03-27T01:43:56.536Z,8.82
2023-03-27T01:45:06.889Z,8.87
2023-03-27T01:46:20.078Z,8.97
2023-03-27T01:47:33.094Z,9.00
2023-03-27T01:49:00.339Z,8.99
2023-03-27T01:50:02.463Z,8.98
2023-03-27T01:51:09.584Z,8.96
2023-03-27T01:52:15.006Z,9.00
2023-03-27T01:53:53.625Z,8.93
2023-03-27T01:55:03.505Z,8.90
2023-03-27T01:56:32.510Z,8.94
2023-03-27T01:57:48.901Z,8.97
2023-03-27T01:58:54.670Z,8.93
2023-03-27T02:00:18.198Z,8.91
2023-03-27T02:01:24.983Z,8.90
2023-03-27T02:02:29.909Z,8.87
2023-03-27T02:03:38.755Z,8.82
2023-03-27T02:04:44.961Z,8.75
2023-03-27T02:05:53.090Z,8.72
2023-03-27T02:06:59.184Z,8.72
2023-03-27T02:08:09.308Z,8.69
2023-03-27T02:09:20.562Z,8.69
2023-03-27T02:10:31.258Z,8.65
2023-03-27T02:11:55.228Z,8.65
2023-03-27T02:13:01.858Z,8.68
2023-03-27T02:14:08.008Z,8.73
2023-03-27T02:15:23.910Z,8.67
2023-03-27T02:16:33.780Z,8.62
2023-03-27T02:17:40.905Z,8.62
2023-03-27T02:18:49.550Z,8.59
2023-03-27T02:20:14.764Z,8.56
2023-03-27T02:21:16.972Z,8.57
2023-03-27T02:22:19.152Z,8.60
2023-03-27T02:23:40.557Z,8.57
2023-03-27T02:24:43.672Z,8.59
2023-03-27T02:25:46.156Z,8.56
2023-03-27T02:26:52.101Z,8.55
2023-03-27T02:28:12.140Z,8.58
2023-03-27T02:29:55.497Z,8.62
2023-03-27T02:31:34.834Z,8.62
2023-03-27T02:32:53.984Z,8.62
2023-03-27T02:34:19.191Z,8.68
2023-03-27T02:35:46.214Z,8.71
2023-03-27T02:37:02.242Z,8.72
2023-03-27T02:38:08.474Z,8.77
2023-03-27T02:39:14.573Z,8.83
2023-03-27T02:40:42.891Z,8.95
2023-03-27T02:41:51.202Z,8.99
2023-03-27T02:43:04.878Z,8.93
2023-03-27T02:44:18.340Z,8.87
2023-03-27T02:45:54.251Z,8.83
2023-03-27T02:47:13.090Z,8.85
2023-03-27T02:48:34.265Z,8.86
2023-03-27T02:49:40.322Z,8.84
2023-03-27T02:51:09.076Z,8.81
2023-03-27T02:52:18.641Z,8.83
2023-03-27T02:53:23.523Z,8.86
2023-03-27T02:54:36.046Z,8.94
2023-03-27T02:55:41.376Z,8.91
2023-03-27T02:56:49.846Z,8.91
2023-03-27T02:57:59.546Z,8.91
2023-03-27T02:59:04.103Z,8.89
2023-03-27T03:00:14.199Z,8.87
2023-03-27T03:01:19.007Z,8.87
2023-03-27T03:02:24.836Z,8.85
2023-03-27T03:03:35.370Z,8.80
2023-03-27T03:04:42.996Z,8.75
2023-03-27T03:05:45.229Z,8.75
2023-03-27T03:06:47.444Z,8.74
2023-03-27T03:07:49.981Z,8.76
2023-03-27T03:08:52.162Z,8.75
2023-03-27T03:09:54.503Z,8.71
2023-03-27T03:11:13.489Z,8.70
2023-03-27T03:12:16.102Z,8.68
2023-03-27T03:13:18.290Z,8.70
2023-03-27T03:14:23.363Z,8.71
2023-03-27T03:15:25.489Z,8.70
2023-03-27T03:16:29.238Z,8.72
2023-03-27T03:17:31.617Z,8.74
2023-03-27T03:18:33.750Z,8.80
2023-03-27T03:19:37.144Z,8.80
2023-03-27T03:20:39.898Z,8.77
2023-03-27T03:21:42.021Z,8.76
2023-03-27T03:22:44.165Z,8.80
2023-03-27T03:23:57.578Z,8.83
2023-03-27T03:25:00.946Z,8.80
2023-03-27T03:26:03.396Z,8.85
2023-03-27T03:27:05.874Z,8.86
2023-03-27T03:28:09.855Z,8.87
2023-03-27T03:29:12.954Z,8.85
2023-03-27T03:30:16.945Z,8.86
2023-03-27T03:31:19.831Z,8.87
2023-03-27T03:32:22.007Z,8.86
2023-03-27T03:33:25.973Z,8.83
2023-03-27T03:34:30.470Z,8.85
2023-03-27T03:35:35.027Z,8.87
2023-03-27T03:36:37.361Z,8.88
2023-03-27T03:37:40.265Z,8.90
2023-03-27T03:38:42.459Z,8.94
2023-03-27T03:39:44.612Z,8.94
2023-03-27T03:40:46.703Z,8.92
2023-03-27T03:41:48.830Z,8.94
2023-03-27T03:42:51.978Z,8.90
2023-03-27T03:43:54.101Z,8.87
2023-03-27T03:44:56.226Z,8.84
2023-03-27T03:45:58.858Z,8.84
2023-03-27T03:47:01.046Z,8.83
2023-03-27T03:48:03.220Z,8.86
2023-03-27T03:49:06.172Z,8.90
2023-03-27T03:50:08.683Z,8.89
2023-03-27T03:51:10.785Z,8.86
2023-03-27T03:52:12.896Z,8.88
2023-03-27T03:53:16.513Z,8.81
2023-03-27T03:54:18.612Z,8.81
2023-03-27T03:55:20.713Z,8.81
2023-03-27T03:56:23.028Z,8.78
2023-03-27T03:57:25.145Z,8.77
2023-03-27T03:58:34.485Z,8.72
2023-03-27T03:59:37.331Z,8.74
2023-03-27T04:00:40.288Z,8.73
2023-03-27T04:01:42.420Z,8.77
2023-03-27T04:02:45.436Z,8.77
2023-03-27T04:03:48.305Z,8.72
2023-03-27T04:04:50.845Z,8.70
2023-03-27T04:05:54.264Z,8.70
2023-03-27T04:06:58.388Z,8.69
2023-03-27T04:08:00.727Z,8.70
2023-03-27T04:09:02.890Z,8.70
2023-03-27T04:10:05.441Z,8.70
2023-03-27T04:11:08.765Z,8.70
2023-03-27T04:12:11.084Z,8.69
2023-03-27T04:13:13.157Z,8.71
2023-03-27T04:14:15.673Z,8.70
2023-03-27T04:15:18.244Z,8.72
2023-03-27T04:16:21.242Z,8.72
2023-03-27T04:17:26.356Z,8.72
2023-03-27T04:18:41.181Z,8.72
2023-03-27T04:19:46.305Z,8.79
2023-03-27T04:20:49.858Z,8.74
2023-03-27T04:21:54.527Z,8.77
2023-03-27T04:22:57.674Z,8.79
2023-03-27T04:24:02.741Z,8.82
2023-03-27T04:25:06.708Z,8.79
2023-03-27T04:26:12.270Z,8.75
2023-03-27T04:27:14.599Z,8.71
2023-03-27T04:28:16.856Z,8.71
2023-03-27T04:29:22.417Z,8.74
2023-03-27T04:30:25.350Z,8.69
2023-03-27T04:31:28.592Z,8.71
2023-03-27T04:32:31.252Z,8.68
2023-03-27T04:33:46.703Z,8.68
2023-03-27T04:34:50.279Z,8.69
2023-03-27T04:36:06.262Z,8.70
2023-03-27T04:37:09.673Z,8.68
2023-03-27T04:38:13.324Z,8.64
2023-03-27T04:39:16.650Z,8.68
2023-03-27T04:40:19.051Z,8.69
2023-03-27T04:41:21.422Z,8.63
2023-03-27T04:42:23.597Z,8.62
2023-03-27T04:43:28.848Z,8.62
2023-03-27T04:44:31.024Z,8.62
2023-03-27T04:45:33.768Z,8.61
2023-03-27T04:46:36.076Z,8.64
2023-03-27T04:47:38.355Z,8.63
2023-03-27T04:48:40.462Z,8.67
2023-03-27T04:49:46.652Z,8.71
2023-03-27T04:50:51.895Z,8.65
2023-03-27T04:51:54.040Z,8.68
2023-03-27T04:53:00.023Z,8.69
2023-03-27T04:54:05.312Z,8.68
2023-03-27T04:55:08.291Z,8.63
2023-03-27T04:56:11.190Z,8.63
2023-03-27T04:57:13.692Z,8.59
2023-03-27T04:58:15.830Z,8.58
2023-03-27T04:59:18.017Z,8.58
2023-03-27T05:00:23.147Z,8.58
2023-03-27T05:01:25.756Z,8.54
2023-03-27T05:02:28.240Z,8.55
2023-03-27T05:03:30.392Z,8.46
2023-03-27T05:04:33.503Z,8.47
2023-03-27T05:05:35.588Z,8.45
2023-03-27T05:06:39.919Z,8.46
2023-03-27T05:07:45.625Z,8.50
2023-03-27T05:08:47.774Z,8.53
2023-03-27T05:09:49.877Z,8.54
2023-03-27T05:10:52.199Z,8.54
2023-03-27T05:11:54.330Z,8.52
2023-03-27T05:12:58.383Z,8.52
2023-03-27T05:14:00.952Z,8.49
2023-03-27T05:15:06.274Z,8.43
2023-03-27T05:16:10.166Z,8.39
2023-03-27T05:17:13.008Z,8.41
2023-03-27T05:18:16.077Z,8.42
2023-03-27T05:19:21.641Z,8.37
2023-03-27T05:20:24.665Z,8.36
2023-03-27T05:21:27.291Z,8.39
2023-03-27T05:22:29.403Z,8.36
2023-03-27T05:23:31.531Z,8.33
2023-03-27T05:24:33.667Z,8.33
2023-03-27T05:25:35.774Z,8.30
2023-03-27T05:26:39.098Z,8.28
2023-03-27T05:27:45.734Z,8.24
2023-03-27T05:28:47.942Z,8.20
2023-03-27T05:29:50.298Z,8.24
2023-03-27T05:30:52.728Z,8.26
2023-03-27T05:31:54.988Z,8.26
2023-03-27T05:32:59.475Z,8.23
2023-03-27T05:34:02.672Z,8.23
2023-03-27T05:35:05.440Z,8.21
2023-03-27T05:36:07.884Z,8.24
2023-03-27T05:37:09.986Z,8.22
2023-03-27T05:38:12.599Z,8.27
2023-03-27T05:39:15.541Z,8.30
2023-03-27T05:40:22.505Z,8.33
2023-03-27T05:41:25.114Z,8.33
2023-03-27T05:42:27.281Z,8.34
2023-03-27T05:43:29.436Z,8.31
2023-03-27T05:44:32.001Z,8.39
2023-03-27T05:45:34.325Z,8.37
2023-03-27T05:46:36.490Z,8.31
2023-03-27T05:47:51.958Z,8.38
2023-03-27T05:48:54.268Z,8.36
2023-03-27T05:49:56.384Z,8.34
2023-03-27T05:50:58.550Z,8.32
2023-03-27T05:52:01.198Z,8.29
2023-03-27T05:53:10.177Z,8.26
2023-03-27T05:54:12.451Z,8.25
2023-03-27T05:55:15.177Z,8.19
2023-03-27T05:56:17.299Z,8.21
2023-03-27T05:57:19.460Z,8.27
2023-03-27T05:58:21.609Z,8.26
2023-03-27T05:59:23.742Z,8.27
2023-03-27T06:00:27.347Z,8.26
2023-03-27T06:01:29.640Z,8.30
2023-03-27T06:02:31.896Z,8.29
2023-03-27T06:03:38.445Z,8.27
2023-03-27T06:04:41.536Z,8.27
2023-03-27T06:05:44.162Z,8.30
2023-03-27T06:06:46.358Z,8.24
2023-03-27T06:07:48.450Z,8.23
2023-03-27T06:08:50.751Z,8.26
2023-03-27T06:09:52.958Z,8.29
2023-03-27T06:10:55.297Z,8.34
2023-03-27T06:11:58.462Z,8.33
2023-03-27T06:13:08.924Z,8.34
2023-03-27T06:14:11.089Z,8.34
2023-03-27T06:15:14.603Z,8.32
2023-03-27T06:16:20.651Z,8.37
2023-03-27T06:17:22.966Z,8.35
2023-03-27T06:18:25.257Z,8.42
2023-03-27T06:19:27.446Z,8.42
2023-03-27T06:20:30.102Z,8.41
2023-03-27T06:21:32.304Z,8.36
2023-03-27T06:22:34.487Z,8.34
2023-03-27T06:23:36.945Z,8.31
2023-03-27T06:24:39.054Z,8.29
2023-03-27T06:25:41.315Z,8.32
2023-03-27T06:26:43.610Z,8.32
2023-03-27T06:27:47.536Z,8.32
2023-03-27T06:28:50.077Z,8.31
2023-03-27T06:29:52.214Z,8.31
2023-03-27T06:30:54.666Z,8.33
2023-03-27T06:31:58.444Z,8.37
2023-03-27T06:33:01.205Z,8.29
2023-03-27T06:34:03.420Z,8.31
2023-03-27T06:35:05.954Z,8.34
2023-03-27T06:36:08.641Z,8.33
2023-03-27T06:37:10.806Z,8.33
2023-03-27T06:38:15.624Z,8.29
2023-03-27T06:39:17.891Z,8.26
2023-03-27T06:40:24.375Z,8.21
2023-03-27T06:41:26.538Z,8.28
2023-03-27T06:42:28.646Z,8.27
2023-03-27T06:43:30.864Z,8.29
2023-03-27T06:44:33.032Z,8.30
2023-03-27T06:45:38.660Z,8.31
2023-03-27T06:46:45.405Z,8.30
2023-03-27T06:47:54.863Z,8.35
2023-03-27T06:48:58.875Z,8.32
2023-03-27T06:50:01.232Z,8.33
2023-03-27T06:51:03.544Z,8.37
2023-03-27T06:52:05.862Z,8.37
2023-03-27T06:53:19.597Z,8.27
2023-03-27T06:54:29.414Z,8.28
2023-03-27T06:55:32.818Z,8.25
2023-03-27T06:56:35.180Z,8.25
2023-03-27T06:57:42.655Z,8.27
2023-03-27T06:58:45.224Z,8.28
2023-03-27T06:59:47.690Z,8.31
2023-03-27T07:00:50.507Z,8.34
2023-03-27T07:01:52.842Z,8.36
2023-03-27T07:02:59.783Z,8.36
2023-03-27T07:04:02.063Z,8.37
2023-03-27T07:05:05.531Z,8.32
2023-03-27T07:06:08.048Z,8.33
2023-03-27T07:07:11.157Z,8.33
2023-03-27T07:08:23.667Z,8.34
2023-03-27T07:09:27.413Z,8.30
2023-03-27T07:10:29.543Z,8.37
2023-03-27T07:11:32.192Z,8.34
2023-03-27T07:12:34.640Z,8.32
2023-03-27T07:13:37.388Z,8.34
2023-03-27T07:14:40.061Z,8.31
2023-03-27T07:15:42.241Z,8.25
2023-03-27T07:16:44.401Z,8.30
2023-03-27T07:18:07.403Z,8.33
2023-03-27T07:19:09.645Z,8.28
2023-03-27T07:20:12.528Z,8.27
2023-03-27T07:21:15.887Z,8.26
2023-03-27T07:22:17.982Z,8.27
2023-03-27T07:23:20.180Z,8.27
2023-03-27T07:24:22.266Z,8.26
2023-03-27T07:25:25.552Z,8.22
2023-03-27T07:26:28.711Z,8.25
2023-03-27T07:27:30.988Z,8.28
2023-03-27T07:28:33.079Z,8.44
2023-03-27T07:29:36.297Z,8.42
2023-03-27T07:30:39.076Z,8.39
2023-03-27T07:31:55.328Z,8.36
2023-03-27T07:32:59.066Z,8.42
2023-03-27T07:34:01.707Z,8.44
2023-03-27T07:35:08.637Z,8.43
2023-03-27T07:36:11.185Z,8.41
2023-03-27T07:37:14.579Z,8.43
2023-03-27T07:38:17.506Z,8.44
2023-03-27T07:39:19.636Z,8.45
2023-03-27T07:40:36.777Z,8.44
2023-03-27T07:41:41.358Z,8.48
2023-03-27T07:42:48.359Z,8.48
2023-03-27T07:43:50.654Z,8.42
2023-03-27T07:44:52.996Z,8.41
2023-03-27T07:45:55.293Z,8.38
2023-03-27T07:46:57.538Z,8.39
2023-03-27T07:48:14.100Z,8.41
2023-03-27T07:49:16.233Z,8.43
2023-03-27T07:50:21.677Z,8.47
2023-03-27T07:51:24.223Z,8.46
2023-03-27T07:52:26.280Z,8.42
2023-03-27T07:53:33.928Z,8.41
2023-03-27T07:54:36.781Z,8.46
2023-03-27T07:55:41.753Z,8.50
2023-03-27T07:56:44.019Z,8.49
2023-03-27T07:58:00.573Z,8.47
2023-03-27T07:59:04.325Z,8.49
2023-03-27T08:00:16.503Z,8.48
2023-03-27T08:01:18.778Z,8.49
2023-03-27T08:02:20.915Z,8.37
2023-03-27T08:03:26.160Z,8.38
2023-03-27T08:04:28.779Z,8.41
2023-03-27T08:05:30.990Z,8.41
2023-03-27T08:06:33.296Z,8.39
2023-03-27T08:07:36.304Z,8.44
2023-03-27T08:08:38.459Z,8.37
2023-03-27T08:09:40.670Z,8.38
2023-03-27T08:10:42.807Z,8.36
2023-03-27T08:11:45.004Z,8.36
2023-03-27T08:12:47.178Z,8.35
2023-03-27T08:13:49.289Z,8.37
2023-03-27T08:14:51.368Z,8.38
2023-03-27T08:16:02.941Z,8.36
2023-03-27T08:17:15.156Z,8.36
2023-03-27T08:18:18.020Z,8.33
2023-03-27T08:19:21.334Z,8.35
2023-03-27T08:20:25.822Z,8.33
2023-03-27T08:21:30.416Z,8.29
2023-03-27T08:22:32.527Z,8.28
2023-03-27T08:23:35.810Z,8.22
2023-03-27T08:24:37.928Z,8.15
2023-03-27T08:25:42.533Z,8.15
2023-03-27T08:26:45.603Z,8.18
2023-03-27T08:27:47.924Z,8.15
2023-03-27T08:28:54.134Z,8.16
2023-03-27T08:29:56.400Z,8.09
2023-03-27T08:31:02.633Z,8.06
2023-03-27T08:32:10.656Z,8.03
2023-03-27T08:33:12.849Z,8.05
2023-03-27T08:34:14.928Z,8.07
2023-03-27T08:35:18.148Z,8.06
2023-03-27T08:36:20.257Z,8.04
2023-03-27T08:37:22.478Z,8.08
2023-03-27T08:38:27.179Z,8.12
2023-03-27T08:39:30.837Z,8.11
2023-03-27T08:40:34.134Z,8.11
2023-03-27T08:41:42.490Z,8.06
2023-03-27T08:42:46.245Z,8.06
2023-03-27T08:43:48.487Z,8.05
2023-03-27T08:44:54.973Z,8.06
2023-03-27T08:46:06.018Z,8.05
2023-03-27T08:47:21.067Z,8.05
2023-03-27T08:48:27.506Z,8.03
2023-03-27T08:49:35.020Z,8.03
2023-03-27T08:50:51.284Z,8.11
2023-03-27T08:51:59.885Z,8.11
2023-03-27T08:53:03.022Z,8.10
2023-03-27T08:54:09.101Z,8.09
2023-03-27T08:55:22.343Z,8.07
2023-03-27T08:56:25.843Z,8.15
2023-03-27T08:57:28.507Z,8.04
2023-03-27T08:58:30.745Z,8.02
2023-03-27T08:59:32.931Z,8.06
2023-03-27T09:00:39.684Z,8.07
2023-03-27T09:02:04.197Z,8.01
2023-03-27T09:03:45.165Z,8.07
2023-03-27T09:05:08.536Z,8.09
2023-03-27T09:06:12.570Z,8.08
2023-03-27T09:07:34.303Z,8.06
2023-03-27T09:08:42.362Z,8.07
2023-03-27T09:10:17.495Z,8.04
2023-03-27T09:11:33.330Z,8.03
2023-03-27T09:12:52.598Z,8.04
2023-03-27T09:13:54.828Z,8.07
2023-03-27T09:15:16.332Z,8.06
2023-03-27T09:16:30.641Z,8.05
2023-03-27T09:17:37.535Z,8.02
2023-03-27T09:19:08.260Z,8.07
2023-03-27T09:20:17.998Z,8.09
2023-03-27T09:21:25.863Z,8.09
2023-03-27T09:22:31.375Z,8.15
2023-03-27T09:23:44.798Z,8.15
2023-03-27T09:24:49.234Z,8.18
2023-03-27T09:26:06.818Z,8.16
2023-03-27T09:27:13.990Z,8.14
2023-03-27T09:28:31.298Z,8.17
2023-03-27T09:29:37.997Z,8.12
2023-03-27T09:30:40.163Z,8.10
2023-03-27T09:31:47.535Z,8.14
2023-03-27T09:32:51.852Z,8.17
2023-03-27T09:33:55.057Z,8.21
2023-03-27T09:34:57.168Z,8.21
2023-03-27T09:35:59.786Z,8.18
2023-03-27T09:37:02.744Z,8.20
2023-03-27T09:38:21.902Z,8.15
2023-03-27T09:39:28.409Z,8.19
2023-03-27T09:40:45.333Z,8.16
2023-03-27T09:41:53.214Z,8.15
2023-03-27T09:42:55.373Z,8.17
2023-03-27T09:44:06.538Z,8.18
2023-03-27T09:45:09.654Z,8.23
2023-03-27T09:46:14.042Z,8.19
2023-03-27T09:47:19.747Z,8.15
2023-03-27T09:48:38.556Z,8.13
2023-03-27T09:49:44.835Z,8.08
2023-03-27T09:50:49.192Z,8.08
2023-03-27T09:51:55.334Z,8.02
2023-03-27T09:53:28.025Z,8.03
2023-03-27T09:54:31.802Z,8.01
2023-03-27T09:55:35.041Z,7.94
2023-03-27T09:56:39.412Z,7.97
2023-03-27T09:57:41.554Z,7.95
2023-03-27T09:58:46.934Z,7.93
2023-03-27T10:00:27.720Z,7.93
2023-03-27T10:01:34.519Z,7.93
2023-03-27T10:02:36.961Z,7.94
2023-03-27T10:03:48.781Z,7.98
2023-03-27T10:04:59.670Z,7.92
2023-03-27T10:06:14.475Z,7.92
2023-03-27T10:07:24.422Z,7.91
2023-03-27T10:08:40.878Z,7.99
2023-03-27T10:09:43.031Z,8.00
2023-03-27T10:10:45.900Z,8.02
2023-03-27T10:11:50.490Z,8.00
2023-03-27T10:12:55.988Z,7.98
2023-03-27T10:14:00.506Z,7.95
2023-03-27T10:15:04.498Z,7.91
2023-03-27T10:16:07.058Z,7.85
2023-03-27T10:17:37.383Z,7.87
2023-03-27T10:18:43.455Z,7.85
2023-03-27T10:19:45.589Z,7.82
2023-03-27T10:20:52.582Z,7.77
2023-03-27T10:22:01.172Z,7.78
2023-03-27T10:23:08.500Z,7.77
2023-03-27T10:24:19.539Z,7.74
2023-03-27T10:25:27.261Z,7.74
2023-03-27T10:26:31.871Z,7.78
2023-03-27T10:27:36.244Z,7.71
2023-03-27T10:28:40.883Z,7.68
2023-03-27T10:29:43.060Z,7.70
2023-03-27T10:30:45.824Z,7.73
2023-03-27T10:31:55.133Z,7.73
2023-03-27T10:32:57.259Z,7.74
2023-03-27T10:34:05.958Z,7.76
2023-03-27T10:35:38.214Z,7.70
2023-03-27T10:36:40.724Z,7.72
2023-03-27T10:37:50.286Z,7.71
2023-03-27T10:39:06.506Z,7.75
2023-03-27T10:40:17.212Z,7.76
2023-03-27T10:41:27.899Z,7.72
2023-03-27T10:42:32.191Z,7.68
2023-03-27T10:43:39.960Z,7.67
2023-03-27T10:44:44.128Z,7.69
2023-03-27T10:45:56.457Z,7.75
2023-03-27T10:46:58.683Z,7.67
2023-03-27T10:48:01.697Z,7.65
2023-03-27T10:49:10.002Z,7.69
2023-03-27T10:50:19.834Z,7.70
2023-03-27T10:51:46.962Z,7.74
2023-03-27T10:53:06.265Z,7.72
2023-03-27T10:54:42.709Z,7.65
2023-03-27T10:55:59.940Z,7.60
2023-03-27T10:57:06.225Z,7.58
2023-03-27T10:58:22.490Z,7.59
2023-03-27T10:59:41.861Z,7.60
2023-03-27T11:00:50.844Z,7.59
2023-03-27T11:02:02.463Z,7.59
2023-03-27T11:03:25.697Z,7.54
2023-03-27T11:04:46.673Z,7.49
2023-03-27T11:05:53.660Z,7.48
2023-03-27T11:06:57.671Z,7.50
2023-03-27T11:08:08.509Z,7.44
2023-03-27T11:09:16.193Z,7.44
2023-03-27T11:10:38.536Z,7.47
2023-03-27T11:11:45.788Z,7.53
2023-03-27T11:12:56.605Z,7.54
2023-03-27T11:14:02.507Z,7.53
2023-03-27T11:15:12.041Z,7.57
2023-03-27T11:16:41.899Z,7.57
2023-03-27T11:17:56.243Z,7.54
2023-03-27T11:19:11.084Z,7.58
2023-03-27T11:20:35.897Z,7.60
2023-03-27T11:21:47.725Z,7.57
2023-03-27T11:22:57.623Z,7.55
2023-03-27T11:24:00.408Z,7.51
2023-03-27T11:25:34.751Z,7.53
2023-03-27T11:26:53.993Z,7.62
2023-03-27T11:28:05.229Z,7.69
2023-03-27T11:29:09.656Z,7.64
2023-03-27T11:30:34.328Z,7.59
2023-03-27T11:31:46.403Z,7.58
2023-03-27T11:33:05.276Z,7.65
2023-03-27T11:34:29.067Z,7.59
2023-03-27T11:35:38.374Z,7.62
2023-03-27T11:36:51.582Z,7.56
2023-03-27T11:37:59.602Z,7.52
2023-03-27T11:39:06.569Z,7.57
2023-03-27T11:40:20.333Z,7.50
2023-03-27T11:41:22.528Z,7.54
2023-03-27T11:42:28.077Z,7.61
2023-03-27T11:43:30.472Z,7.61
2023-03-27T11:44:32.578Z,7.64
2023-03-27T11:46:00.871Z,7.67
2023-03-27T11:47:27.834Z,7.73
2023-03-27T11:48:51.629Z,7.68
2023-03-27T11:50:22.175Z,7.67
2023-03-27T11:51:28.723Z,7.65
2023-03-27T11:52:46.623Z,7.63
2023-03-27T11:53:56.641Z,7.64
2023-03-27T11:55:08.680Z,7.62
2023-03-27T11:56:34.917Z,7.70
2023-03-27T11:58:09.748Z,7.75
2023-03-27T11:59:33.157Z,7.83
2023-03-27T12:00:39.532Z,7.90
2023-03-27T12:01:50.904Z,7.92
2023-03-27T12:03:07.032Z,7.98
2023-03-27T12:04:40.112Z,8.00
2023-03-27T12:05:57.383Z,8.06
2023-03-27T12:07:12.638Z,8.07
2023-03-27T12:08:24.815Z,8.10
2023-03-27T12:09:42.244Z,8.08
2023-03-27T12:10:46.832Z,8.10
2023-03-27T12:11:58.051Z,8.21
2023-03-27T12:13:11.856Z,8.14
2023-03-27T12:14:40.854Z,8.09
2023-03-27T12:16:27.588Z,8.15
2023-03-27T12:17:32.752Z,8.23
2023-03-27T12:18:54.515Z,8.28
2023-03-27T12:20:43.522Z,8.42
2023-03-27T12:21:58.501Z,8.36
2023-03-27T12:23:25.650Z,8.37
2023-03-27T12:24:33.177Z,8.45
2023-03-27T12:26:03.774Z,8.46
2023-03-27T12:27:20.572Z,8.49
2023-03-27T12:28:34.828Z,8.41
2023-03-27T12:29:52.043Z,8.44
2023-03-27T12:31:00.639Z,8.47
2023-03-27T12:32:40.672Z,8.49
2023-03-27T12:34:01.342Z,8.52
2023-03-27T12:35:12.402Z,8.52
2023-03-27T12:36:19.148Z,8.48
2023-03-27T12:37:25.113Z,8.51
2023-03-27T12:38:37.738Z,8.51
2023-03-27T12:39:51.875Z,8.50
2023-03-27T12:41:00.446Z,8.52
2023-03-27T12:42:13.209Z,8.50
2023-03-27T12:43:18.406Z,8.52
2023-03-27T12:44:29.380Z,8.50
2023-03-27T12:45:33.147Z,8.60
2023-03-27T12:46:40.893Z,8.68
2023-03-27T12:48:07.818Z,8.70
2023-03-27T12:49:13.229Z,8.74
2023-03-27T12:50:21.557Z,8.73
2023-03-27T12:51:38.450Z,8.74
2023-03-27T12:52:45.553Z,8.70
2023-03-27T12:53:50.299Z,8.63
2023-03-27T12:55:04.226Z,8.61
2023-03-27T12:56:30.000Z,8.53
2023-03-27T12:57:42.141Z,8.56
2023-03-27T12:58:46.192Z,8.47
2023-03-27T12:59:48.256Z,8.41
2023-03-27T13:01:00.325Z,8.29
2023-03-27T13:02:03.363Z,8.31
2023-03-27T13:03:11.870Z,8.24
2023-03-27T13:04:32.767Z,8.10
2023-03-27T13:06:12.609Z,8.08
2023-03-27T13:07:34.171Z,8.02
2023-03-27T13:08:55.908Z,7.97
2023-03-27T13:10:31.035Z,7.97
2023-03-27T13:11:54.654Z,7.93
2023-03-27T13:13:21.794Z,7.93
2023-03-27T13:14:32.986Z,7.89
2023-03-27T13:15:47.889Z,7.85
2023-03-27T13:17:09.601Z,7.73
2023-03-27T13:18:20.810Z,7.73
2023-03-27T13:19:26.133Z,7.65
2023-03-27T13:20:30.814Z,7.66
2023-03-27T13:21:42.651Z,7.68
2023-03-27T13:23:15.612Z,7.68
2023-03-27T13:24:42.464Z,7.63
2023-03-27T13:26:03.390Z,7.56
2023-03-27T13:27:38.980Z,7.54
2023-03-27T13:28:49.200Z,7.46
2023-03-27T13:29:52.976Z,7.47
2023-03-27T13:30:57.676Z,7.48
2023-03-27T13:32:18.005Z,7.48
2023-03-27T13:33:23.068Z,7.46
2023-03-27T13:34:37.855Z,7.36
2023-03-27T13:35:53.155Z,7.40
2023-03-27T13:37:07.498Z,7.36
2023-03-27T13:38:10.525Z,7.21
2023-03-27T13:39:24.519Z,7.14
2023-03-27T13:40:29.792Z,7.11
2023-03-27T13:41:43.906Z,7.00
2023-03-27T13:42:51.801Z,6.97
2023-03-27T13:43:54.191Z,6.93
2023-03-27T13:45:22.173Z,6.92
2023-03-27T13:46:29.245Z,6.93
2023-03-27T13:47:34.139Z,6.91
2023-03-27T13:48:58.123Z,6.83
2023-03-27T13:50:32.027Z,6.85
2023-03-27T13:52:16.080Z,6.87
2023-03-27T13:53:55.084Z,6.85
2023-03-27T13:55:29.347Z,6.85
2023-03-27T13:56:35.029Z,6.87
2023-03-27T13:57:49.114Z,6.82
2023-03-27T13:59:28.839Z,6.75
2023-03-27T14:00:54.524Z,6.69
2023-03-27T14:02:04.511Z,6.66
2023-03-27T14:03:21.728Z,6.62
2023-03-27T14:04:23.889Z,6.60
2023-03-27T14:05:37.237Z,6.51
2023-03-27T14:07:10.159Z,6.51
2023-03-27T14:08:29.286Z,6.48
2023-03-27T14:10:00.927Z,6.46
2023-03-27T14:11:12.572Z,6.39
2023-03-27T14:12:20.675Z,6.31
2023-03-27T14:13:31.627Z,6.33
2023-03-27T14:14:37.240Z,6.31
2023-03-27T14:15:47.378Z,6.27
2023-03-27T14:17:11.287Z,6.26
2023-03-27T14:18:44.036Z,6.26
2023-03-27T14:19:48.951Z,6.22
2023-03-27T14:21:00.704Z,6.21
2023-03-27T14:22:05.376Z,6.19
2023-03-27T14:23:14.143Z,6.22
2023-03-27T14:24:30.537Z,6.22
2023-03-27T14:25:36.467Z,6.17
2023-03-27T14:26:41.804Z,6.23
2023-03-27T14:27:45.771Z,6.23
2023-03-27T14:28:54.374Z,6.15
2023-03-27T14:30:09.208Z,6.11
2023-03-27T14:31:14.787Z,6.07
2023-03-27T14:32:18.133Z,5.99
2023-03-27T14:33:20.564Z,5.97
2023-03-27T14:34:24.914Z,6.00
2023-03-27T14:35:31.463Z,5.96
2023-03-27T14:36:34.155Z,6.00
2023-03-27T14:37:36.836Z,6.02
2023-03-27T14:38:39.012Z,6.00
2023-03-27T14:39:41.206Z,6.00
2023-03-27T14:40:47.562Z,5.96
2023-03-27T14:41:56.648Z,5.83
2023-03-27T14:43:00.726Z,5.87
2023-03-27T14:44:04.765Z,5.88
2023-03-27T14:45:20.599Z,5.86
2023-03-27T14:46:24.345Z,5.86
2023-03-27T14:47:27.061Z,5.85
2023-03-27T14:48:42.738Z,5.84
2023-03-27T14:49:50.257Z,5.89
2023-03-27T14:50:54.551Z,5.90
2023-03-27T14:52:00.945Z,5.87
2023-03-27T14:53:08.921Z,5.84
2023-03-27T14:54:17.562Z,5.88
2023-03-27T14:55:22.107Z,5.86
2023-03-27T14:56:38.028Z,5.87
2023-03-27T14:57:41.437Z,5.96
2023-03-27T14:58:46.577Z,5.98
2023-03-27T14:59:48.941Z,5.89
2023-03-27T15:01:00.274Z,5.92
2023-03-27T15:02:30.813Z,5.79
2023-03-27T15:03:37.899Z,5.81
2023-03-27T15:04:40.572Z,5.72
2023-03-27T15:06:06.410Z,5.72
2023-03-27T15:07:19.112Z,5.70
2023-03-27T15:08:25.740Z,5.78
2023-03-27T15:09:27.998Z,5.73
2023-03-27T15:10:31.667Z,5.69
2023-03-27T15:11:39.066Z,5.66
2023-03-27T15:12:47.743Z,5.67
2023-03-27T15:13:51.112Z,5.63